KMTN/MTN METAR and TAF weather

Enter ICAO airport designator
Station Type Date Time Source
KMTN METAR 2022/01/19 18:53 UTC NOAA

KMTN 191853Z 12006KT 10SM CLR 08/00 A3002


Station Type Date Time Source
KMTN Decoded METAR 2022/01/19 18:53 UTC NOAA

Baltimore / Martin, MD, United States (KMTN) 39-20N 076-25W
Jan 19, 2022 - 01:53 PM EST / 2022.01.19 1853 UTC
Wind: from the ESE (120 degrees) at 7 MPH (6 KT):0
Visibility: 10 mile(s):0
Sky conditions: clear
Temperature: 46 F (8 C)
Dew Point: 32 F (0 C)
Relative Humidity: 56%
Pressure (altimeter): 30.02 in. Hg (1016 hPa)
ob: KMTN 191853Z 12006KT 10SM CLR 08/00 A3002
cycle: 19

Station Type Date Time Source
KMTN TAF 2022/01/19 18:22 UTC NOAA

TAF KMTN 191720Z 1918/2018 20009KT P6SM SCT250
FM200500 26003KT 4SM RA BR OVC015
FM201100 34006KT 3SM RASN BR OVC008
FM201300 35007KT 1/2SM SN OVC008
FM201600 35010G17KT 5SM -SN BR OVC015

Example: see airport list